Time;durP1;ratioP1;P1;durP2;ratioP2;P2;SDS_P1;SDS_P2;PMS_P1;PMS_P2;Temp;Humidity;BMP_temperature;BMP_pressure;BME280_temperature;BME280_humidity;BME280_pressure;Samples;Min_cycle;Max_cycle;Signal;HPM_P1;HPM_P2
2023/04/11 00:00:08;;;;;;;43.58;4.00;;;;;;;18.65;59.38;99143.47;7313314;19;129123;-40
2023/04/11 00:02:34;;;;;;;85.47;6.13;;;;;;;18.65;59.54;99134.81;7312320;19;129136;-40
2023/04/11 00:05:00;;;;;;;64.90;5.18;;;;;;;18.69;58.71;99137.03;7315139;19;129525;-38
2023/04/11 00:07:25;;;;;;;37.58;3.90;;;;;;;18.74;58.71;99132.25;7312877;19;129813;-42
2023/04/11 00:09:50;;;;;;;39.97;3.85;;;;;;;18.74;58.67;99128.84;7315044;19;128884;-40
2023/04/11 00:12:16;;;;;;;116.72;7.97;;;;;;;18.67;58.38;99104.28;7312456;19;130027;-41
2023/04/11 00:14:44;;;;;;;24.35;2.90;;;;;;;18.70;60.06;99112.66;7312792;19;129292;-40
2023/04/11 00:17:11;;;;;;;32.53;3.30;;;;;;;18.75;59.55;99117.44;7312293;19;129414;-42
2023/04/11 00:19:38;;;;;;;37.60;3.72;;;;;;;18.61;58.56;99087.41;7311885;19;129280;-40
2023/04/11 00:22:03;;;;;;;;;;;;;;;18.83;60.67;99099.38;7314660;19;129582;-40
2023/04/11 00:24:29;;;;;;;38.28;3.65;;;;;;;18.74;59.31;99089.78;7314418;19;129566;-41
2023/04/11 00:26:55;;;;;;;40.47;3.97;;;;;;;18.78;59.97;99089.38;7310846;19;129079;-39
2023/04/11 00:29:21;;;;;;;50.53;4.57;;;;;;;18.73;59.95;99080.31;7312659;19;129533;-40
2023/04/11 00:31:46;;;;;;;54.10;4.22;;;;;;;18.75;59.17;99079.22;7313718;19;129764;-42
2023/04/11 00:34:12;;;;;;;45.42;4.00;;;;;;;18.75;59.33;99081.84;7312009;19;130241;-41
2023/04/11 00:36:40;;;;;;;49.50;3.90;;;;;;;18.75;59.29;99081.84;7309347;19;128909;-40
2023/04/11 00:39:07;;;;;;;43.55;4.07;;;;;;;18.60;59.25;99046.72;7312901;19;128995;-42
2023/04/11 00:41:33;;;;;;;34.45;3.55;;;;;;;18.71;59.53;99064.00;7313456;19;130464;-43
2023/04/11 00:43:59;;;;;;;30.75;3.28;;;;;;;18.72;59.56;99056.06;7314412;19;129678;-43
2023/04/11 00:46:24;;;;;;;33.55;3.55;;;;;;;18.76;59.63;99057.44;7311419;19;130883;-42
2023/04/11 00:48:50;;;;;;;49.95;4.40;;;;;;;18.75;60.22;99047.97;7312465;19;129248;-40
2023/04/11 00:51:16;;;;;;;88.30;5.97;;;;;;;18.73;59.23;99044.69;7313996;19;130210;-41
2023/04/11 00:53:44;;;;;;;48.13;4.77;;;;;;;18.77;58.98;99033.06;7313588;19;130963;-41
2023/04/11 00:56:10;;;;;;;8.25;2.67;;;;;;;18.72;60.20;99039.63;7310402;19;129073;-42
2023/04/11 00:58:37;;;;;;;48.65;4.28;;;;;;;18.75;59.52;99044.53;7311859;19;129124;-42
2023/04/11 01:01:08;;;;;;;57.67;4.50;;;;;;;18.77;58.96;99033.06;7313492;19;130104;-41
2023/04/11 01:03:34;;;;;;;51.33;4.35;;;;;;;18.76;59.27;99017.56;7311806;19;129360;-41
2023/04/11 01:06:00;;;;;;;;;;;;;;;18.79;61.03;99020.69;7312844;19;129617;-42
2023/04/11 01:08:25;;;;;;;43.40;3.92;;;;;;;18.75;59.74;99023.72;7312692;19;129028;-39
2023/04/11 01:10:51;;;;;;;82.43;5.85;;;;;;;18.79;58.76;99027.72;7312109;19;129357;-42
2023/04/11 01:13:17;;;;;;;33.03;3.60;;;;;;;18.75;59.11;99034.13;7313987;19;129348;-40
2023/04/11 01:15:42;;;;;;;46.75;3.85;;;;;;;18.78;59.46;99033.84;7308366;19;129030;-38
2023/04/11 01:18:08;;;;;;;80.13;6.05;;;;;;;18.76;59.11;99031.38;7308670;19;130245;-41
2023/04/11 01:20:33;;;;;;;52.35;4.25;;;;;;;18.75;58.94;99040.16;7311958;19;132136;-41
2023/04/11 01:23:01;;;;;;;34.30;3.35;;;;;;;18.73;59.76;99031.66;7312948;19;129283;-40
2023/04/11 01:25:27;;;;;;;73.05;5.78;;;;;;;18.75;59.03;99036.72;7310735;19;128792;-39
2023/04/11 01:27:52;;;;;;;27.02;3.08;;;;;;;18.76;59.22;99041.00;7310376;19;129040;-42
2023/04/11 01:30:18;;;;;;;55.58;4.20;;;;;;;18.76;58.98;99039.19;7311892;19;130171;-40
2023/04/11 01:32:43;;;;;;;39.88;3.65;;;;;;;18.66;59.37;99029.75;7312223;19;129763;-42
2023/04/11 01:35:10;;;;;;;30.52;3.55;;;;;;;18.74;59.71;99048.91;7310409;19;129375;-42
2023/04/11 01:37:36;;;;;;;40.33;3.60;;;;;;;18.72;60.19;99045.66;7310616;19;130683;-42
2023/04/11 01:40:02;;;;;;;52.10;4.10;;;;;;;18.77;59.15;99038.25;7313173;19;129122;-40
2023/04/11 01:42:28;;;;;;;37.67;3.67;;;;;;;18.65;59.42;99013.28;7312786;19;129173;-42
2023/04/11 01:44:55;;;;;;;57.83;4.70;;;;;;;18.64;58.85;99011.66;7311847;19;129547;-41
2023/04/11 01:47:21;;;;;;;42.28;3.70;;;;;;;18.74;58.70;99027.28;7309257;19;129516;-38
2023/04/11 01:49:46;;;;;;;69.72;5.07;;;;;;;18.74;58.88;99022.88;7310217;19;129615;-40
2023/04/11 01:52:11;;;;;;;58.03;4.63;;;;;;;18.74;59.54;99022.88;7313100;19;129058;-41
2023/04/11 01:54:37;;;;;;;40.15;3.70;;;;;;;18.73;59.57;99005.63;7310287;19;131051;-43
2023/04/11 01:57:03;;;;;;;43.92;3.80;;;;;;;18.71;58.75;98986.69;7309478;19;129205;-42
2023/04/11 01:59:28;;;;;;;30.53;3.23;;;;;;;18.58;59.74;98952.31;7311309;19;130825;-42
2023/04/11 02:01:53;;;;;;;44.55;3.70;;;;;;;18.72;59.32;98972.75;7310934;19;132052;-40
2023/04/11 02:04:19;;;;;;;42.05;3.78;;;;;;;18.74;59.23;98970.81;7308785;19;129194;-39
2023/04/11 02:06:44;;;;;;;44.35;3.53;;;;;;;18.73;59.42;98969.16;7310670;19;129064;-42
2023/04/11 02:09:10;;;;;;;37.80;3.55;;;;;;;18.73;59.38;98966.56;7312645;19;129052;-42
2023/04/11 02:11:35;;;;;;;63.63;4.60;;;;;;;18.78;59.55;98950.53;7311079;19;130494;-41
2023/04/11 02:14:01;;;;;;;73.05;5.32;;;;;;;18.76;59.37;98942.06;7309072;19;129968;-40
2023/04/11 02:16:28;;;;;;;56.75;4.13;;;;;;;18.81;58.59;98940.66;7307312;19;129105;-41
2023/04/11 02:18:55;;;;;;;47.30;3.83;;;;;;;18.79;58.72;98937.38;7307930;19;130321;-42
2023/04/11 02:21:20;;;;;;;43.90;3.97;;;;;;;18.64;59.28;98907.53;7311811;19;130285;-42
2023/04/11 02:23:45;;;;;;;37.60;3.45;;;;;;;18.76;59.00;98916.81;7310588;19;129201;-40
2023/04/11 02:26:11;;;;;;;57.25;4.68;;;;;;;18.74;59.54;98908.31;7308579;19;129546;-41
2023/04/11 02:28:36;;;;;;;66.28;5.05;;;;;;;18.75;60.04;98903.94;7311324;19;129831;-42
2023/04/11 02:31:02;;;;;;;44.08;3.78;;;;;;;18.78;59.34;98895.84;7317076;19;130252;-41
2023/04/11 02:33:28;;;;;;;26.15;2.70;;;;;;;18.75;58.88;98894.34;7317410;19;129521;-41
2023/04/11 02:35:54;;;;;;;44.35;3.75;;;;;;;18.78;58.72;98891.47;7315032;19;129322;-40
2023/04/11 02:38:19;;;;;;;41.15;4.00;;;;;;;18.78;59.26;98881.06;7317412;19;129025;-41
2023/04/11 02:40:45;;;;;;;29.70;2.90;;;;;;;18.77;58.70;98882.03;7317400;19;130393;-41
2023/04/11 02:43:11;;;;;;;40.53;3.50;;;;;;;18.66;59.51;98857.94;7317292;19;129095;-41
2023/04/11 02:45:37;;;;;;;46.47;3.80;;;;;;;18.80;58.68;98876.53;7316428;19;128957;-40
2023/04/11 02:48:02;;;;;;;38.00;3.53;;;;;;;18.78;59.38;98877.63;7314869;19;130344;-43
2023/04/11 02:50:27;;;;;;;37.88;3.75;;;;;;;18.80;59.12;98870.50;7317281;19;129359;-40
2023/04/11 02:52:53;;;;;;;51.38;4.25;;;;;;;18.76;60.08;98872.56;7316892;19;129571;-40
2023/04/11 02:55:21;;;;;;;84.10;6.10;;;;;;;18.72;58.86;98868.59;7315148;19;129488;-40
2023/04/11 02:57:47;;;;;;;31.98;3.65;;;;;;;18.76;59.06;98864.75;7313947;19;129837;-39
2023/04/11 03:00:13;;;;;;;34.22;3.55;;;;;;;18.76;59.48;98858.72;7314430;19;129721;-41
2023/04/11 03:02:38;;;;;;;51.80;3.78;;;;;;;18.76;59.56;98862.13;7315491;19;129852;-43
2023/04/11 03:05:04;;;;;;;67.43;5.05;;;;;;;18.78;59.46;98856.78;7316595;19;129847;-43
2023/04/11 03:07:32;;;;;;;96.88;6.57;;;;;;;18.79;59.74;98861.84;7313931;19;129237;-40
2023/04/11 03:09:58;;;;;;;35.13;3.22;;;;;;;18.80;58.66;98860.91;7315474;19;129724;-41
2023/04/11 03:12:24;;;;;;;61.63;4.75;;;;;;;18.80;59.42;98853.09;7316462;19;129250;-41
2023/04/11 03:14:49;;;;;;;42.72;3.92;;;;;;;18.78;58.98;98851.59;7315961;19;128918;-41
2023/04/11 03:17:15;;;;;;;38.58;3.42;;;;;;;18.77;59.23;98849.94;7314645;19;129000;-41
2023/04/11 03:19:40;;;;;;;28.85;3.05;;;;;;;18.79;59.14;98848.84;7315236;19;130212;-42
2023/04/11 03:22:06;;;;;;;37.83;3.53;;;;;;;18.80;59.22;98853.09;7317798;19;128973;-39
2023/04/11 03:24:31;;;;;;;30.13;3.03;;;;;;;18.78;59.14;98843.78;7316731;19;128860;-41
2023/04/11 03:26:57;;;;;;;28.30;3.17;;;;;;;18.78;58.78;98839.38;7315159;19;129542;-41
2023/04/11 03:29:23;;;;;;;24.45;2.67;;;;;;;18.81;59.14;98843.47;7314695;19;130520;-42
2023/04/11 03:31:48;;;;;;;55.10;3.78;;;;;;;18.81;58.95;98846.91;7317187;19;128785;-40
2023/04/11 03:34:14;;;;;;;33.13;3.08;;;;;;;18.79;58.75;98838.41;7317281;19;129187;-42
2023/04/11 03:36:39;;;;;;;12.75;2.17;;;;;;;18.41;57.52;98837.66;7312084;19;130204;-41
2023/04/11 03:39:05;;;;;;;33.10;3.33;;;;;;;18.37;58.18;98831.03;7315390;19;129419;-40
2023/04/11 03:41:30;;;;;;;52.10;4.28;;;;;;;18.48;57.30;98810.13;7317504;19;129250;-41
2023/04/11 03:43:55;;;;;;;11.85;2.00;;;;;;;19.01;55.99;98817.25;7315961;19;129018;-41
2023/04/11 03:46:21;;;;;;;37.70;3.30;;;;;;;19.21;55.84;98829.25;7316154;19;129178;-42
2023/04/11 03:48:46;;;;;;;55.42;4.07;;;;;;;19.31;55.32;98824.88;7311762;19;129299;-43
2023/04/11 03:51:12;;;;;;;27.52;2.70;;;;;;;19.61;54.51;98821.16;7317571;19;129241;-40
2023/04/11 03:53:37;;;;;;;32.28;3.13;;;;;;;19.91;53.44;98823.44;7316264;19;128992;-42
2023/04/11 03:56:03;;;;;;;30.63;2.67;;;;;;;19.87;53.85;98801.22;7315197;19;129579;-38
2023/04/11 03:58:28;;;;;;;65.43;4.97;;;;;;;20.20;53.36;98807.59;7313849;19;134037;-42
2023/04/11 04:00:54;;;;;;;48.45;3.65;;;;;;;20.30;52.82;98803.13;7317644;19;128823;-41
2023/04/11 04:03:20;;;;;;;33.40;3.03;;;;;;;20.61;52.25;98804.34;7315385;19;130013;-41
2023/04/11 04:05:45;;;;;;;14.32;2.25;;;;;;;20.68;51.28;98807.97;7314153;19;130039;-40
2023/04/11 04:08:12;;;;;;;118.20;7.53;;;;;;;20.71;51.76;98797.22;7312548;19;130068;-42
2023/04/11 04:10:37;;;;;;;43.65;3.47;;;;;;;20.64;52.12;98806.66;7316056;19;129069;-40
2023/04/11 04:13:04;;;;;;;33.63;3.15;;;;;;;20.48;51.39;98777.81;7315102;19;128946;-40
2023/04/11 04:15:29;;;;;;;33.83;2.92;;;;;;;20.54;52.01;98804.13;7313480;19;130101;-41
2023/04/11 04:17:55;;;;;;;59.70;4.32;;;;;;;20.77;51.34;98796.63;7310825;19;130831;-41
2023/04/11 04:20:20;;;;;;;36.38;2.95;;;;;;;20.82;51.07;98794.38;7315573;19;128782;-42
2023/04/11 04:22:46;;;;;;;45.58;3.75;;;;;;;20.76;51.40;98788.94;7313719;19;129090;-42
2023/04/11 04:25:14;;;;;;;40.45;3.95;;;;;;;20.90;51.38;98783.97;7314579;19;129436;-42
2023/04/11 04:27:43;;;;;;;61.67;4.47;;;;;;;21.03;50.96;98781.78;7312420;19;129479;-40
2023/04/11 04:30:10;;;;;;;31.35;2.55;;;;;;;21.23;50.44;98767.50;7313481;19;129005;-38
2023/04/11 04:32:35;;;;;;;51.08;4.13;;;;;;;21.40;50.19;98776.22;7313943;19;129212;-42
2023/04/11 04:35:01;;;;;;;47.60;3.72;;;;;;;21.44;49.85;98773.13;7312099;19;129353;-39
2023/04/11 04:37:26;;;;;;;47.22;3.55;;;;;;;21.48;49.66;98784.09;7309882;19;130435;-41
2023/04/11 04:40:00;;;;;;;32.85;2.78;;;;;;;21.44;49.55;98788.81;7313712;19;129746;-40
2023/04/11 04:42:27;;;;;;;35.60;3.03;;;;;;;21.23;50.40;98793.66;7314350;19;128833;-42
2023/04/11 04:44:54;;;;;;;32.28;3.05;;;;;;;21.07;50.39;98792.75;7314742;19;129005;-40
2023/04/11 04:47:27;;;;;;;63.42;4.50;;;;;;;20.92;50.87;98799.50;7311013;19;132218;-41
2023/04/11 04:49:55;;;;;;;46.90;3.42;;;;;;;20.65;51.59;98776.94;7312128;19;132821;-40
2023/04/11 04:52:21;;;;;;;37.78;3.08;;;;;;;20.63;51.85;98807.63;7315756;19;128862;-42
2023/04/11 04:54:47;;;;;;;42.38;3.22;;;;;;;20.42;52.45;98807.97;7311998;19;129174;-41
2023/04/11 04:57:12;;;;;;;29.65;2.92;;;;;;;20.30;52.68;98818.78;7312380;19;129606;-41
2023/04/11 04:59:37;;;;;;;49.42;3.63;;;;;;;20.21;52.96;98814.47;7313145;19;129098;-40
2023/04/11 05:02:03;;;;;;;63.53;4.28;;;;;;;19.97;53.39;98790.72;7313127;19;128834;-42
2023/04/11 05:04:29;;;;;;;34.15;3.00;;;;;;;19.91;53.84;98802.59;7311178;19;129183;-40
2023/04/11 05:06:54;;;;;;;63.10;4.38;;;;;;;19.86;54.29;98793.53;7310260;19;129756;-41
2023/04/11 05:09:20;;;;;;;48.70;3.65;;;;;;;19.91;53.88;98788.72;7311276;19;129487;-39
2023/04/11 05:11:45;;;;;;;44.85;3.65;;;;;;;19.84;54.10;98772.00;7314101;19;129081;-42
2023/04/11 05:14:10;;;;;;;36.53;3.17;;;;;;;20.12;53.52;98782.22;7310966;19;131496;-41
2023/04/11 05:16:39;;;;;;;28.75;2.70;;;;;;;20.26;53.12;98779.09;7311549;19;129594;-40
2023/04/11 05:19:05;;;;;;;66.45;4.65;;;;;;;20.47;52.49;98784.84;7313796;19;129206;-41
2023/04/11 05:21:30;;;;;;;34.85;2.67;;;;;;;20.62;51.99;98783.31;7313124;19;129235;-41
2023/04/11 05:23:56;;;;;;;34.80;2.90;;;;;;;20.79;51.42;98779.03;7312054;19;129153;-42
2023/04/11 05:26:21;;;;;;;73.95;5.13;;;;;;;21.04;51.13;98782.63;7308530;19;129239;-41
2023/04/11 05:28:46;;;;;;;35.20;3.03;;;;;;;21.11;50.59;98768.75;7307827;19;129152;-40
2023/04/11 05:31:12;;;;;;;43.53;3.35;;;;;;;21.15;50.46;98740.50;7312367;19;128899;-42
2023/04/11 05:33:38;;;;;;;41.33;3.30;;;;;;;20.66;51.42;98748.06;7310595;19;130253;-41
2023/04/11 05:36:05;;;;;;;123.28;7.70;;;;;;;20.80;50.90;98758.91;7308538;19;130350;-42
2023/04/11 05:38:32;;;;;;;96.75;6.45;;;;;;;20.88;50.74;98738.88;7306161;19;130139;-41
2023/04/11 05:40:58;;;;;;;69.40;4.93;;;;;;;20.35;52.27;98727.78;7301413;19;130287;-39
2023/04/11 05:43:24;;;;;;;45.00;3.97;;;;;;;20.10;53.09;98745.03;7310566;19;129069;-37
2023/04/11 05:45:49;;;;;;;65.00;4.60;;;;;;;19.91;54.14;98754.81;7309936;19;131457;-39
2023/04/11 05:48:18;;;;;;;52.38;4.55;;;;;;;19.70;54.54;98742.03;7311912;19;129787;-39
2023/04/11 05:50:44;;;;;;;38.97;3.97;;;;;;;19.59;54.27;98744.03;7311619;19;128925;-41
2023/04/11 05:53:09;;;;;;;36.53;3.63;;;;;;;19.50;54.91;98744.94;7311560;19;129341;-38
2023/04/11 05:55:35;;;;;;;69.10;5.35;;;;;;;19.35;55.45;98740.19;7310645;19;130325;-40
2023/04/11 05:58:01;;;;;;;29.13;3.00;;;;;;;19.36;55.17;98744.47;7307365;19;130678;-39
2023/04/11 06:00:29;;;;;;;46.70;4.18;;;;;;;19.40;55.67;98735.38;7307995;19;129981;-40
2023/04/11 06:02:55;;;;;;;26.92;2.95;;;;;;;19.47;56.61;98735.59;7309064;19;130364;-40
2023/04/11 06:05:20;;;;;;;68.70;5.07;;;;;;;19.48;55.96;98738.06;7311804;19;129352;-40
2023/04/11 06:07:46;;;;;;;25.80;3.10;;;;;;;19.61;55.97;98742.09;7307371;19;130174;-39
2023/04/11 06:10:12;;;;;;;28.92;3.28;;;;;;;19.73;55.83;98738.31;7313141;19;129414;-40
2023/04/11 06:12:37;;;;;;;49.78;4.32;;;;;;;19.87;55.97;98737.78;7309078;19;130042;-37
2023/04/11 06:15:03;;;;;;;113.63;7.53;;;;;;;19.93;55.59;98738.00;7307332;19;130812;-41
2023/04/11 06:17:28;;;;;;;37.67;3.80;;;;;;;20.08;55.63;98746.94;7308370;19;128990;-40
2023/04/11 06:19:54;;;;;;;141.35;9.30;;;;;;;20.14;55.59;98743.75;7306719;19;129276;-37
2023/04/11 06:22:19;;;;;;;43.55;4.05;;;;;;;20.22;54.90;98748.25;7309689;19;130061;-40
2023/04/11 06:24:45;;;;;;;53.00;3.78;;;;;;;20.30;55.15;98751.75;7312507;19;130213;-39
2023/04/11 06:27:10;;;;;;;33.13;3.17;;;;;;;20.31;55.29;98752.56;7306259;19;131329;-39
2023/04/11 06:29:37;;;;;;;39.83;3.97;;;;;;;20.29;55.18;98749.28;7309038;19;130666;-38
2023/04/11 06:32:02;;;;;;;91.07;6.57;;;;;;;20.24;55.68;98751.53;7309042;19;129594;-40
2023/04/11 06:34:28;;;;;;;44.78;3.65;;;;;;;20.16;55.55;98759.31;7309571;19;129670;-39
2023/04/11 06:36:53;;;;;;;26.75;3.08;;;;;;;20.01;55.91;98745.09;7308376;19;129557;-40
2023/04/11 06:39:19;;;;;;;41.55;3.97;;;;;;;20.01;56.54;98760.75;7308422;19;131656;-39
2023/04/11 06:41:48;;;;;;;60.20;4.30;;;;;;;19.96;56.83;98763.00;7312156;19;130392;-40
2023/04/11 06:44:13;;;;;;;38.10;3.63;;;;;;;19.88;56.98;98765.53;7307401;19;130335;-39
2023/04/11 06:46:39;;;;;;;16.75;2.83;;;;;;;19.81;57.14;98770.53;7309309;19;128837;-39
2023/04/11 06:49:06;;;;;;;28.77;2.90;;;;;;;19.78;57.44;98772.59;7307448;19;128962;-41
2023/04/11 06:51:31;;;;;;;;;;;;;;;19.72;58.10;98773.22;7306768;19;130127;-40
2023/04/11 06:53:57;;;;;;;49.47;3.85;;;;;;;19.61;57.05;98758.59;7310288;19;129127;-39
2023/04/11 06:56:22;;;;;;;32.55;3.45;;;;;;;19.74;57.21;98784.28;7306422;19;130818;-41
2023/04/11 06:58:48;;;;;;;39.00;3.45;;;;;;;19.78;57.54;98796.91;7308317;19;129000;-38
2023/04/11 07:01:13;;;;;;;146.80;9.43;;;;;;;19.85;57.31;98807.56;7306901;19;129401;-40
2023/04/11 07:03:39;;;;;;;36.33;3.40;;;;;;;19.87;57.51;98800.41;7309634;19;129142;-39
2023/04/11 07:06:06;;;;;;;87.43;5.80;;;;;;;19.82;57.14;98781.75;7307172;19;130349;-38
2023/04/11 07:08:31;;;;;;;36.83;3.15;;;;;;;20.13;56.09;98801.31;7308895;19;128952;-40
2023/04/11 07:10:57;;;;;;;54.45;4.20;;;;;;;20.23;56.29;98802.09;7310970;19;129869;-40
2023/04/11 07:13:22;;;;;;;75.80;5.20;;;;;;;20.38;55.83;98811.00;7306492;19;130027;-38
2023/04/11 07:15:48;;;;;;;74.07;5.45;;;;;;;20.43;56.18;98804.38;7312988;19;129255;-40
2023/04/11 07:18:13;;;;;;;43.35;3.78;;;;;;;20.33;55.77;98798.41;7315541;19;128893;-41
2023/04/11 07:20:38;;;;;;;74.90;5.18;;;;;;;20.37;55.64;98812.00;7317248;19;129182;-38
2023/04/11 07:23:04;;;;;;;29.92;3.20;;;;;;;20.18;56.23;98793.91;7315035;19;129699;-40
2023/04/11 07:25:29;;;;;;;76.78;5.47;;;;;;;20.27;56.22;98809.47;7314213;19;129034;-40
2023/04/11 07:28:07;;;;;;;48.08;3.78;;;;;;;20.21;56.97;98817.09;7310226;19;129856;-40
2023/04/11 07:30:32;;;;;;;;;;;;;;;20.15;56.47;98820.28;7313911;19;129904;-37
2023/04/11 07:32:58;;;;;;;34.00;3.33;;;;;;;20.14;57.08;98823.81;7316029;19;129944;-39
2023/04/11 07:35:23;;;;;;;176.98;11.40;;;;;;;20.07;57.49;98813.16;7309648;19;131153;-38
2023/04/11 07:37:49;;;;;;;34.35;3.20;;;;;;;20.02;57.70;98810.19;7314075;19;128860;-40
2023/04/11 07:40:14;;;;;;;61.42;4.32;;;;;;;19.97;56.96;98806.38;7315787;19;129260;-39
2023/04/11 07:42:40;;;;;;;33.03;2.92;;;;;;;19.97;57.91;98822.03;7314772;19;129079;-40
2023/04/11 07:45:07;;;;;;;55.88;4.40;;;;;;;19.95;58.07;98823.97;7315025;19;129299;-39
2023/04/11 07:47:32;;;;;;;;;;;;;;;19.94;58.73;98822.31;7312604;19;130413;-39
2023/04/11 07:49:58;;;;;;;52.57;4.07;;;;;;;19.95;58.07;98826.59;7316062;19;129492;-38
2023/04/11 07:52:24;;;;;;;33.60;3.05;;;;;;;19.95;58.10;98823.97;7315750;19;129430;-40
2023/04/11 07:54:50;;;;;;;95.28;6.20;;;;;;;19.98;57.63;98821.06;7310430;19;129669;-38
2023/04/11 07:57:15;;;;;;;20.92;2.35;;;;;;;20.12;58.06;98830.97;7310525;19;129164;-39
2023/04/11 07:59:41;;;;;;;46.25;3.75;;;;;;;20.16;57.36;98825.34;7315119;19;130459;-40
2023/04/11 08:02:07;;;;;;;95.13;6.43;;;;;;;20.24;56.81;98825.44;7313024;19;130447;-40
2023/04/11 08:04:33;;;;;;;51.90;3.87;;;;;;;20.42;56.56;98820.19;7315546;19;129120;-40
2023/04/11 08:06:59;;;;;;;48.23;3.73;;;;;;;20.46;56.34;98824.16;7312482;19;129306;-40
2023/04/11 08:09:26;;;;;;;58.90;4.22;;;;;;;20.61;56.24;98820.00;7310464;19;130885;-38
2023/04/11 08:11:51;;;;;;;49.83;3.72;;;;;;;20.59;56.48;98824.59;7313750;19;129789;-40
2023/04/11 08:14:17;;;;;;;29.67;2.67;;;;;;;20.55;55.90;98823.22;7312319;19;128995;-40
2023/04/11 08:16:43;;;;;;;50.40;3.70;;;;;;;20.47;56.18;98826.63;7308194;19;130172;-40
2023/04/11 08:19:10;;;;;;;47.90;3.57;;;;;;;20.46;56.35;98818.94;7313918;19;129447;-39
2023/04/11 08:21:35;;;;;;;;;;;;;;;20.37;56.85;98809.38;7312159;19;129647;-39
2023/04/11 08:24:00;;;;;;;31.73;2.83;;;;;;;20.28;56.72;98808.50;7313361;19;129563;-40
2023/04/11 08:26:26;;;;;;;78.72;5.00;;;;;;;20.26;57.57;98812.22;7312978;19;129274;-41
2023/04/11 08:28:51;;;;;;;14.70;2.15;;;;;;;20.23;57.78;98817.75;7312631;19;129170;-39
2023/04/11 08:31:17;;;;;;;47.72;3.45;;;;;;;20.05;57.78;98794.22;7314061;19;129245;-40
2023/04/11 08:33:42;;;;;;;37.65;3.15;;;;;;;20.16;57.58;98816.72;7312447;19;129523;-40
2023/04/11 08:36:08;;;;;;;51.63;3.53;;;;;;;20.01;57.51;98798.13;7309333;19;130293;-37
2023/04/11 08:38:38;;;;;;;35.35;2.75;;;;;;;20.02;58.14;98809.34;7312781;19;130498;-38
2023/04/11 08:41:03;;;;;;;45.33;3.25;;;;;;;20.04;57.86;98812.63;7313078;19;130437;-41
2023/04/11 08:43:32;;;;;;;52.78;3.95;;;;;;;20.05;58.20;98806.44;7309313;19;129240;-40
2023/04/11 08:46:01;;;;;;;56.08;3.85;;;;;;;20.07;57.75;98820.16;7312891;19;129207;-37
2023/04/11 08:48:27;;;;;;;46.80;3.47;;;;;;;20.06;58.12;98811.53;7304935;19;130244;-36
2023/04/11 08:50:52;;;;;;;45.97;3.23;;;;;;;20.10;57.88;98805.03;7314021;19;131135;-39
2023/04/11 08:53:21;;;;;;;42.47;3.03;;;;;;;20.20;57.77;98815.41;7309045;19;129603;-40
2023/04/11 08:55:47;;;;;;;54.85;3.67;;;;;;;20.27;57.33;98819.09;7314398;19;129671;-39
2023/04/11 08:58:13;;;;;;;53.43;3.50;;;;;;;20.40;57.26;98824.75;7312500;19;130222;-39
2023/04/11 09:00:39;;;;;;;34.38;2.83;;;;;;;20.46;57.48;98839.81;7312819;19;129721;-37
2023/04/11 09:03:06;;;;;;;37.33;2.88;;;;;;;20.59;56.88;98829.81;7312598;19;129823;-40
2023/04/11 09:05:34;;;;;;;57.75;3.80;;;;;;;20.67;56.96;98837.69;7312371;19;129986;-41
2023/04/11 09:08:03;;;;;;;28.83;2.63;;;;;;;20.66;56.37;98833.44;7310595;19;129211;-37
2023/04/11 09:10:28;;;;;;;48.03;3.40;;;;;;;20.63;56.24;98825.91;7312836;19;129592;-40
2023/04/11 09:12:55;;;;;;;57.85;4.28;;;;;;;20.58;56.30;98839.41;7311900;19;130164;-40
2023/04/11 09:15:23;;;;;;;53.53;3.75;;;;;;;20.55;57.23;98841.50;7312083;19;130397;-41
2023/04/11 09:17:49;;;;;;;52.63;3.78;;;;;;;20.52;56.84;98839.22;7308758;19;129339;-40
2023/04/11 09:20:19;;;;;;;28.92;2.30;;;;;;;20.48;57.30;98832.63;7308089;19;131254;-40
2023/04/11 09:22:49;;;;;;;51.58;3.42;;;;;;;20.40;57.26;98836.00;7311452;19;129585;-39
2023/04/11 09:25:14;;;;;;;72.95;5.05;;;;;;;20.36;57.29;98839.09;7310295;19;129660;-40
2023/04/11 09:27:40;;;;;;;75.22;5.32;;;;;;;20.28;57.79;98841.63;7301928;19;130085;-39
2023/04/11 09:30:22;;;;;;;103.00;6.85;;;;;;;20.23;57.60;98833.41;7302697;19;130680;-38
2023/04/11 09:32:51;;;;;;;80.85;5.78;;;;;;;20.19;57.92;98832.06;7302343;19;130493;-40
2023/04/11 09:35:23;;;;;;;79.05;5.57;;;;;;;20.10;58.24;98817.25;7305487;19;129272;-38
2023/04/11 09:37:52;;;;;;;48.08;3.50;;;;;;;20.16;57.64;98829.75;7302716;19;130479;-41
2023/04/11 09:40:20;;;;;;;75.88;5.40;;;;;;;20.06;58.09;98803.72;7308207;19;129404;-40
2023/04/11 09:42:47;;;;;;;32.45;2.78;;;;;;;20.18;58.12;98817.38;7310083;19;130041;-40
2023/04/11 09:45:21;;;;;;;62.53;4.28;;;;;;;20.24;58.04;98808.94;7312660;19;129115;-40
2023/04/11 09:47:48;;;;;;;32.15;2.80;;;;;;;20.28;57.81;98789.41;7310625;19;129150;-40
2023/04/11 09:50:14;;;;;;;41.10;3.10;;;;;;;20.35;57.97;98795.66;7309857;19;129876;-39
2023/04/11 09:52:41;;;;;;;39.63;2.87;;;;;;;20.47;57.46;98789.22;7312225;19;129479;-39
2023/04/11 09:55:15;;;;;;;75.00;5.50;;;;;;;20.58;57.23;98795.03;7312183;19;129023;-39
2023/04/11 09:57:45;;;;;;;48.00;3.40;;;;;;;20.67;56.43;98790.69;7305660;19;131979;-40
2023/04/11 10:00:17;;;;;;;56.83;3.97;;;;;;;20.77;57.04;98786.97;7312309;19;129710;-40
2023/04/11 10:02:51;;;;;;;58.75;4.32;;;;;;;20.75;56.74;98780.28;7312740;19;129475;-39
2023/04/11 10:05:18;;;;;;;79.93;5.25;;;;;;;20.74;56.53;98781.28;7312050;19;128830;-38
2023/04/11 10:07:52;;;;;;;48.08;3.25;;;;;;;20.73;56.52;98784.84;7306056;19;130911;-39
2023/04/11 10:10:20;;;;;;;66.85;4.80;;;;;;;20.71;57.18;98786.78;7310430;19;130260;-40
2023/04/11 10:12:46;;;;;;;52.20;3.80;;;;;;;20.65;56.74;98784.78;7310031;19;129134;-39
2023/04/11 10:15:12;;;;;;;74.47;4.83;;;;;;;20.56;56.91;98788.34;7310963;19;129548;-39
2023/04/11 10:17:39;;;;;;;39.40;2.88;;;;;;;20.51;57.19;98773.09;7310196;19;130190;-38
2023/04/11 10:20:42;;;;;;;64.85;4.28;;;;;;;20.48;58.11;98780.41;7309339;19;130485;-39
2023/04/11 10:23:07;;;;;;;33.75;2.58;;;;;;;20.40;57.64;98778.56;7310851;19;130523;-38
2023/04/11 10:25:49;;;;;;;25.00;2.70;;;;;;;20.22;57.30;98780.38;7310958;19;129064;-40
2023/04/11 10:28:47;;;;;;;43.95;3.47;;;;;;;20.12;57.01;98773.56;7309318;19;130685;-39
2023/04/11 10:31:15;;;;;;;34.08;3.42;;;;;;;20.01;57.40;98773.81;7307974;19;130759;-40
2023/04/11 10:34:11;;;;;;;46.55;3.92;;;;;;;19.98;57.54;98774.09;7308334;19;129863;-36
2023/04/11 10:37:12;;;;;;;72.63;5.75;;;;;;;19.90;58.07;98774.03;7308717;19;130561;-39
2023/04/11 10:39:46;;;;;;;21.48;2.83;;;;;;;19.86;57.50;98772.69;7305658;19;129028;-40
2023/04/11 10:42:27;;;;;;;37.67;3.83;;;;;;;19.74;58.02;98755.59;7309810;19;129407;-40
2023/04/11 10:45:28;;;;;;;50.15;4.47;;;;;;;19.83;58.27;98779.03;7310133;19;129015;-40
2023/04/11 10:47:56;;;;;;;50.53;4.32;;;;;;;19.87;57.33;98769.91;7307041;19;130949;-38
2023/04/11 10:50:24;;;;;;;44.70;4.40;;;;;;;20.06;57.65;98766.34;7316551;19;129551;-40
2023/04/11 10:52:50;;;;;;;62.63;5.07;;;;;;;20.16;57.28;98759.31;7314737;19;129356;-38
2023/04/11 10:55:17;;;;;;;74.03;5.78;;;;;;;20.34;57.13;98770.53;7315400;19;129805;-39
2023/04/11 10:58:08;;;;;;;18.25;2.92;;;;;;;20.49;56.63;98808.97;7311887;19;129252;-36
2023/04/11 11:00:46;;;;;;;43.95;3.88;;;;;;;20.55;56.48;98860.63;7316110;19;131311;-39
2023/04/11 11:03:16;;;;;;;44.40;3.63;;;;;;;20.55;56.55;98875.47;7315206;19;130518;-38
2023/04/11 11:05:43;;;;;;;55.05;4.38;;;;;;;20.59;56.82;98890.66;7316100;19;129223;-38
2023/04/11 11:08:09;;;;;;;67.80;5.05;;;;;;;20.53;56.61;98901.72;7314822;19;129638;-39
2023/04/11 11:10:38;;;;;;;43.13;3.73;;;;;;;20.49;56.50;98886.50;7316150;19;129040;-39
2023/04/11 11:13:03;;;;;;;40.92;3.70;;;;;;;20.48;57.31;98883.06;7314503;19;130920;-39
2023/04/11 11:15:35;;;;;;;92.97;5.70;;;;;;;20.29;57.61;98817.97;7314744;19;129944;-40
2023/04/11 11:18:01;;;;;;;86.93;5.93;;;;;;;20.42;57.09;98825.41;7313159;19;131674;-38